Time;durP1;ratioP1;P1;durP2;ratioP2;P2;SDS_P1;SDS_P2;PMS_P1;PMS_P2;Temp;Humidity;BMP_temperature;BMP_pressure;BME280_temperature;BME280_humidity;BME280_pressure;Samples;Min_cycle;Max_cycle;Signal;HPM_P1;HPM_P2
2023/08/14 00:01:54;;;;;;;4.22;3.80;;;14.90;89.00;;;;;;5095073;28;20089;-79
2023/08/14 00:04:20;;;;;;;8.05;4.20;;;15.00;89.20;;;;;;5094960;28;20044;-80
2023/08/14 00:06:46;;;;;;;5.00;3.67;;;14.90;89.20;;;;;;5061350;28;20130;-80
2023/08/14 00:09:11;;;;;;;8.20;4.90;;;15.00;89.10;;;;;;5061415;28;20044;-80
2023/08/14 00:11:37;;;;;;;6.15;4.15;;;15.00;89.40;;;;;;5077917;28;20040;-80
2023/08/14 00:14:03;;;;;;;7.03;4.50;;;15.00;89.60;;;;;;5061326;28;20092;-79
2023/08/14 00:16:29;;;;;;;5.20;4.03;;;15.00;89.60;;;;;;5094661;28;20084;-79
2023/08/14 00:18:55;;;;;;;7.80;4.15;;;15.00;89.50;;;;;;5094567;28;20040;-80
2023/08/14 00:21:21;;;;;;;5.90;4.05;;;15.00;89.40;;;;;;5094664;28;20469;-80
2023/08/14 00:23:47;;;;;;;5.90;4.53;;;15.00;89.30;;;;;;5077713;28;20043;-80
2023/08/14 00:26:13;;;;;;;8.10;4.60;;;15.00;89.70;;;;;;5077769;28;20123;-80
2023/08/14 00:28:39;;;;;;;7.60;4.88;;;15.00;89.60;;;;;;5077369;28;20194;-80
2023/08/14 00:31:05;;;;;;;6.60;4.45;;;15.10;89.50;;;;;;5077568;28;20113;-80
2023/08/14 00:33:31;;;;;;;5.72;4.60;;;15.10;89.80;;;;;;5077547;28;20036;-80
2023/08/14 00:35:57;;;;;;;8.57;4.45;;;15.10;89.80;;;;;;5094225;28;20147;-80
2023/08/14 00:38:23;;;;;;;8.20;4.18;;;15.10;89.90;;;;;;5094311;28;20152;-80
2023/08/14 00:40:48;;;;;;;6.20;3.75;;;15.20;90.00;;;;;;5060712;28;20036;-80
2023/08/14 00:43:14;;;;;;;7.63;5.07;;;15.10;89.90;;;;;;5077555;28;20039;-80
2023/08/14 00:45:40;;;;;;;5.47;4.70;;;15.20;90.00;;;;;;5077538;28;20372;-79
2023/08/14 00:48:06;;;;;;;6.13;4.50;;;15.20;90.10;;;;;;5077032;28;20039;-80
2023/08/14 00:50:34;;;;;;;7.55;5.15;;;15.10;90.00;;;;;;5094058;28;20090;-80
2023/08/14 00:53:02;;;;;;;6.38;4.40;;;15.20;90.10;;;;;;5094039;28;20040;-80
2023/08/14 00:55:28;;;;;;;6.20;4.68;;;15.10;90.10;;;;;;5094028;28;20071;-80
2023/08/14 00:57:55;;;;;;;9.95;4.50;;;15.00;90.00;;;;;;5094158;28;20071;-79
2023/08/14 01:00:21;;;;;;;7.90;5.32;;;15.00;89.90;;;;;;5094192;28;20109;-80
2023/08/14 01:02:49;;;;;;;7.38;4.93;;;15.10;90.20;;;;;;5093890;28;20332;-80
2023/08/14 01:05:15;;;;;;;8.15;5.32;;;15.00;90.20;;;;;;5077154;28;20044;-79
2023/08/14 01:07:40;;;;;;;9.30;5.50;;;15.00;90.20;;;;;;5076767;28;20484;-79
2023/08/14 01:10:08;;;;;;;8.68;5.03;;;15.00;90.00;;;;;;5093723;28;20039;-80
2023/08/14 01:13:02;;;;;;;5.95;5.25;;;14.90;90.10;;;;;;5076962;28;20032;-80
2023/08/14 01:15:36;;;;;;;6.70;5.38;;;14.90;90.30;;;;;;5093709;28;20032;-79
2023/08/14 01:18:03;;;;;;;8.07;5.55;;;14.90;90.70;;;;;;5076943;28;20048;-80
2023/08/14 01:20:32;;;;;;;6.35;4.88;;;14.90;90.70;;;;;;5077056;28;20496;-79
2023/08/14 01:22:57;;;;;;;7.60;5.43;;;15.00;90.50;;;;;;5093426;28;20130;-80
2023/08/14 01:25:30;;;;;;;8.75;5.72;;;15.00;90.60;;;;;;5076604;28;20136;-80
2023/08/14 01:27:56;;;;;;;8.10;4.65;;;15.00;90.40;;;;;;5076328;28;20109;-80
2023/08/14 01:30:22;;;;;;;7.97;5.40;;;15.00;90.60;;;;;;5059756;28;20101;-80
2023/08/14 01:32:50;;;;;;;8.70;5.20;;;15.00;90.70;;;;;;5076371;28;20032;-80
2023/08/14 01:35:18;;;;;;;10.63;5.57;;;15.00;90.50;;;;;;5076347;28;20064;-80
2023/08/14 01:37:52;;;;;;;8.32;5.40;;;15.00;90.80;;;;;;5076396;28;20048;-80
2023/08/14 01:40:30;;;;;;;8.02;5.75;;;15.00;90.90;;;;;;5093093;28;20043;-80
2023/08/14 01:43:04;;;;;;;6.32;5.28;;;15.00;90.80;;;;;;5076195;28;20477;-80
2023/08/14 01:45:32;;;;;;;7.80;5.43;;;15.00;90.80;;;;;;5093329;28;20039;-80
2023/08/14 01:48:00;;;;;;;8.63;5.00;;;15.00;90.70;;;;;;5092835;28;20131;-80
2023/08/14 01:50:28;;;;;;;6.70;5.15;;;15.00;90.70;;;;;;5093246;28;20032;-80
2023/08/14 01:52:55;;;;;;;6.53;4.82;;;15.00;91.00;;;;;;5093313;28;20380;-80
2023/08/14 01:55:25;;;;;;;9.15;5.20;;;15.00;91.30;;;;;;5076244;28;20122;-79
2023/08/14 01:57:52;;;;;;;9.48;6.30;;;15.00;91.40;;;;;;5093131;28;20040;-79
2023/08/14 02:00:18;;;;;;;9.40;5.28;;;15.00;91.80;;;;;;5075787;28;20044;-79
2023/08/14 02:02:44;;;;;;;7.47;5.22;;;15.00;91.30;;;;;;5075797;28;20044;-79
2023/08/14 02:05:10;;;;;;;7.90;5.88;;;15.00;91.60;;;;;;5092951;28;20032;-80
2023/08/14 02:07:35;;;;;;;8.02;5.18;;;15.00;92.00;;;;;;5092365;28;20136;-80
2023/08/14 02:10:02;;;;;;;10.07;4.80;;;15.00;92.10;;;;;;5075987;28;20087;-80
2023/08/14 02:12:30;;;;;;;9.98;5.72;;;15.00;91.60;;;;;;5059086;28;20114;-80
2023/08/14 02:14:56;;;;;;;8.70;5.38;;;15.00;91.50;;;;;;5075589;28;20476;-79
2023/08/14 02:17:22;;;;;;;8.18;5.20;;;15.10;91.50;;;;;;5092389;28;20040;-80
2023/08/14 02:19:47;;;;;;;10.85;5.82;;;15.00;91.60;;;;;;5075808;28;20047;-79
2023/08/14 02:22:13;;;;;;;9.63;5.38;;;15.10;91.50;;;;;;5092388;28;20507;-79
2023/08/14 02:24:39;;;;;;;5.05;4.55;;;15.10;91.90;;;;;;5058793;28;20412;-79
2023/08/14 02:27:05;;;;;;;10.23;5.40;;;15.10;91.60;;;;;;5092324;28;20126;-80
2023/08/14 02:29:31;;;;;;;8.82;5.47;;;15.20;92.00;;;;;;5092148;28;20043;-79
2023/08/14 02:31:56;;;;;;;8.48;5.15;;;15.20;92.60;;;;;;5075523;28;20040;-80
2023/08/14 02:34:52;;;;;;;10.20;5.88;;;15.20;92.20;;;;;;5075153;28;20040;-80
2023/08/14 02:37:18;;;;;;;6.18;5.32;;;15.20;92.30;;;;;;5075741;28;20047;-80
2023/08/14 02:39:45;;;;;;;10.07;6.35;;;15.20;92.10;;;;;;5092149;28;20040;-80
2023/08/14 02:42:11;;;;;;;13.55;6.75;;;15.20;92.40;;;;;;5092022;28;20101;-79
2023/08/14 02:44:37;;;;;;;11.75;5.97;;;15.20;92.50;;;;;;5092072;28;20040;-79
2023/08/14 02:47:04;;;;;;;9.43;6.32;;;15.20;92.80;;;;;;5092122;28;20101;-80
2023/08/14 02:49:30;;;;;;;10.98;6.18;;;15.20;92.90;;;;;;5075046;28;20552;-79
2023/08/14 02:51:56;;;;;;;11.30;6.97;;;15.20;93.00;;;;;;5075428;28;20075;-80
2023/08/14 02:54:22;;;;;;;13.57;7.47;;;15.10;92.80;;;;;;5092136;28;20040;-80
2023/08/14 02:56:48;;;;;;;9.52;5.55;;;15.10;92.90;;;;;;5091793;28;20038;-80
2023/08/14 02:59:14;;;;;;;9.02;6.15;;;15.20;92.50;;;;;;5075270;28;20036;-80
2023/08/14 03:01:40;;;;;;;11.55;6.22;;;15.10;92.90;;;;;;5091831;28;20043;-80
2023/08/14 03:04:06;;;;;;;9.50;5.63;;;15.10;93.20;;;;;;5075216;28;20043;-79
2023/08/14 03:06:32;;;;;;;10.43;6.38;;;15.10;93.00;;;;;;5074948;28;20548;-79
2023/08/14 03:08:58;;;;;;;10.57;6.18;;;15.10;92.90;;;;;;5074855;28;20040;-79
2023/08/14 03:11:24;;;;;;;9.02;6.25;;;15.10;92.80;;;;;;5091769;28;20043;-79
2023/08/14 03:13:50;;;;;;;8.32;6.18;;;15.00;92.70;;;;;;5096197;28;20036;-80
2023/08/14 03:16:16;;;;;;;10.00;6.43;;;15.00;92.70;;;;;;5079060;28;20036;-80
2023/08/14 03:18:42;;;;;;;9.18;5.13;;;15.00;92.60;;;;;;5095815;28;20047;-79
2023/08/14 03:21:08;;;;;;;11.50;6.97;;;15.00;92.60;;;;;;5096078;28;20093;-79
2023/08/14 03:23:34;;;;;;;10.48;6.28;;;15.00;92.50;;;;;;5095754;28;20047;-79
2023/08/14 03:26:01;;;;;;;7.75;5.07;;;15.00;92.50;;;;;;5095922;28;20083;-79
2023/08/14 03:28:27;;;;;;;7.30;5.28;;;15.00;92.40;;;;;;5095675;28;20093;-80
2023/08/14 03:30:52;;;;;;;8.60;5.57;;;14.90;92.40;;;;;;5095819;28;20430;-80
2023/08/14 03:33:18;;;;;;;9.55;6.38;;;14.90;92.50;;;;;;5095649;28;20054;-80
2023/08/14 03:35:44;;;;;;;9.85;6.50;;;14.90;92.60;;;;;;5078502;28;20048;-79
2023/08/14 03:38:10;;;;;;;8.50;6.35;;;14.90;92.50;;;;;;5078550;28;20090;-79
2023/08/14 03:40:35;;;;;;;10.55;6.28;;;14.80;92.40;;;;;;5062091;28;20089;-79
2023/08/14 03:43:02;;;;;;;9.80;7.18;;;14.90;92.50;;;;;;5078501;28;20040;-80
2023/08/14 03:45:27;;;;;;;10.15;7.25;;;14.90;92.40;;;;;;5062228;28;20435;-79
2023/08/14 03:47:53;;;;;;;9.30;6.90;;;14.80;92.60;;;;;;5078463;28;20036;-80
2023/08/14 03:50:19;;;;;;;8.55;6.65;;;14.80;92.60;;;;;;5095330;28;20381;-80
2023/08/14 03:52:45;;;;;;;8.25;6.05;;;14.80;92.80;;;;;;5095181;28;20074;-80
2023/08/14 03:55:10;;;;;;;8.02;6.30;;;14.80;92.60;;;;;;5078265;28;20119;-79
2023/08/14 03:57:36;;;;;;;7.90;6.28;;;14.80;92.70;;;;;;5095116;28;20032;-79
2023/08/14 04:00:03;;;;;;;7.97;5.68;;;14.80;92.60;;;;;;5095066;28;20040;-80
2023/08/14 04:02:28;;;;;;;13.13;6.93;;;14.80;92.70;;;;;;5061641;28;20393;-79
2023/08/14 04:04:54;;;;;;;11.10;6.75;;;14.80;92.70;;;;;;5077916;28;20039;-79
2023/08/14 04:07:20;;;;;;;12.45;7.13;;;14.80;92.50;;;;;;5061130;28;20512;-79
2023/08/14 04:09:45;;;;;;;9.88;6.30;;;14.70;92.60;;;;;;5094143;28;20051;-79
2023/08/14 04:12:11;;;;;;;11.35;7.03;;;14.70;92.70;;;;;;5077748;28;20039;-79
2023/08/14 04:14:37;;;;;;;11.48;7.75;;;14.70;92.80;;;;;;5077862;28;20036;-79
2023/08/14 04:17:03;;;;;;;11.18;7.15;;;14.60;93.00;;;;;;5094598;28;20032;-80
2023/08/14 04:19:29;;;;;;;12.68;7.22;;;14.60;93.00;;;;;;5061496;28;20369;-80
2023/08/14 04:21:54;;;;;;;8.85;6.18;;;14.60;92.90;;;;;;5061183;28;20101;-79
2023/08/14 04:24:20;;;;;;;7.13;6.25;;;14.60;92.80;;;;;;5077144;28;20044;-80
2023/08/14 04:26:46;;;;;;;8.50;6.68;;;14.60;92.70;;;;;;5077567;28;20044;-79
2023/08/14 04:29:12;;;;;;;14.35;7.25;;;14.60;92.80;;;;;;5094549;28;20048;-79
2023/08/14 04:31:39;;;;;;;8.30;6.10;;;14.60;92.60;;;;;;5094510;28;20047;-79
2023/08/14 04:34:05;;;;;;;13.10;7.82;;;14.60;92.50;;;;;;5077657;28;20093;-79
2023/08/14 04:36:32;;;;;;;11.45;6.45;;;14.50;92.50;;;;;;5044453;28;20131;-80
2023/08/14 04:38:58;;;;;;;10.57;6.28;;;14.50;92.40;;;;;;5077633;28;20438;-79
2023/08/14 04:41:25;;;;;;;11.23;6.80;;;14.50;92.40;;;;;;5077487;28;20048;-79
2023/08/14 04:43:51;;;;;;;13.45;7.47;;;14.40;92.50;;;;;;5077433;28;20036;-79
2023/08/14 04:46:33;;;;;;;9.57;6.57;;;14.40;92.80;;;;;;5077365;28;20044;-79
2023/08/14 04:48:59;;;;;;;13.57;9.48;;;14.40;92.90;;;;;;5077250;28;20361;-80
2023/08/14 04:51:26;;;;;;;11.07;8.50;;;14.40;92.90;;;;;;5094399;28;20043;-79
2023/08/14 04:53:53;;;;;;;10.27;8.43;;;14.50;92.90;;;;;;5094168;28;20048;-79
2023/08/14 04:56:18;;;;;;;14.63;9.48;;;14.50;93.00;;;;;;5077481;28;20043;-79
2023/08/14 04:58:45;;;;;;;12.15;8.90;;;14.50;92.90;;;;;;5077356;28;20384;-79
2023/08/14 05:01:10;;;;;;;10.32;8.48;;;14.50;93.00;;;;;;5093978;28;20040;-80
2023/08/14 05:03:36;;;;;;;13.43;9.10;;;14.50;93.10;;;;;;5093771;28;20097;-80
2023/08/14 05:06:02;;;;;;;11.52;9.25;;;14.50;93.10;;;;;;5077093;28;20143;-79
2023/08/14 05:08:27;;;;;;;10.90;9.23;;;14.60;93.20;;;;;;5076804;28;20400;-79
2023/08/14 05:10:54;;;;;;;13.52;9.93;;;14.60;93.30;;;;;;5094092;28;20036;-79
2023/08/14 05:13:21;;;;;;;15.82;10.85;;;14.50;93.30;;;;;;5060054;28;20124;-79
2023/08/14 05:15:48;;;;;;;12.10;10.15;;;14.50;93.70;;;;;;5060070;28;20488;-79
2023/08/14 05:18:15;;;;;;;14.23;10.45;;;14.50;94.10;;;;;;5093475;28;20105;-79
2023/08/14 05:20:47;;;;;;;15.98;10.70;;;14.50;94.10;;;;;;5060372;28;20043;-79
2023/08/14 05:23:14;;;;;;;12.15;10.02;;;14.60;94.20;;;;;;5093521;28;20075;-79
2023/08/14 05:25:44;;;;;;;14.57;9.60;;;14.60;94.00;;;;;;5093507;28;20043;-79
2023/08/14 05:28:11;;;;;;;15.85;10.80;;;14.60;93.70;;;;;;5093298;28;20044;-79
2023/08/14 05:30:37;;;;;;;13.70;10.25;;;14.70;94.30;;;;;;5076838;28;20427;-79
2023/08/14 05:33:03;;;;;;;15.90;10.80;;;14.70;94.00;;;;;;5076345;28;20032;-79
2023/08/14 05:35:29;;;;;;;15.77;11.90;;;14.80;94.50;;;;;;5058558;28;20052;-79
2023/08/14 05:37:56;;;;;;;12.85;10.35;;;14.80;94.40;;;;;;5059769;28;20109;-79
2023/08/14 05:40:26;;;;;;;14.68;10.20;;;14.80;94.20;;;;;;5060045;28;20055;-80
2023/08/14 05:43:03;;;;;;;13.30;10.82;;;14.90;94.10;;;;;;5059527;28;20040;-78
2023/08/14 05:45:29;;;;;;;13.73;10.55;;;15.00;94.10;;;;;;5093292;28;20051;-79
2023/08/14 05:47:54;;;;;;;15.68;10.40;;;15.00;94.00;;;;;;5075874;28;20055;-80
2023/08/14 05:50:21;;;;;;;15.27;11.63;;;15.10;94.10;;;;;;5076130;28;20137;-80
2023/08/14 05:52:47;;;;;;;13.27;11.77;;;15.20;94.40;;;;;;5092909;28;20044;-79
2023/08/14 05:55:13;;;;;;;15.88;10.18;;;15.20;94.30;;;;;;5076335;28;20036;-79
2023/08/14 05:57:38;;;;;;;12.02;10.25;;;15.30;94.10;;;;;;5076337;28;20374;-79
2023/08/14 06:00:05;;;;;;;15.45;10.80;;;15.30;94.10;;;;;;5092802;28;20050;-79
2023/08/14 06:02:30;;;;;;;12.23;8.57;;;15.40;94.30;;;;;;5092673;28;20474;-79
2023/08/14 06:04:56;;;;;;;15.52;10.48;;;15.40;94.30;;;;;;5059416;28;20132;-79
2023/08/14 06:07:22;;;;;;;17.20;10.45;;;15.50;94.30;;;;;;5075697;28;20488;-79
2023/08/14 06:09:47;;;;;;;11.40;10.20;;;15.60;94.20;;;;;;5075680;28;20043;-80
2023/08/14 06:12:13;;;;;;;14.45;10.55;;;15.60;94.00;;;;;;5059178;28;20067;-80
2023/08/14 06:14:39;;;;;;;13.23;10.20;;;15.70;93.90;;;;;;5075930;28;20047;-79
2023/08/14 06:17:04;;;;;;;10.93;8.75;;;15.80;94.10;;;;;;5058823;28;20400;-79
2023/08/14 06:19:31;;;;;;;15.07;9.95;;;16.00;94.00;;;;;;5058976;28;20040;-79
2023/08/14 06:21:57;;;;;;;12.02;9.43;;;16.00;94.00;;;;;;5055676;28;20456;-80
2023/08/14 06:24:23;;;;;;;13.02;9.18;;;16.00;94.00;;;;;;5055700;28;20046;-81
2023/08/14 06:26:48;;;;;;;13.60;9.75;;;16.10;93.70;;;;;;5071953;28;20040;-81
2023/08/14 06:29:14;;;;;;;13.52;9.25;;;16.20;94.00;;;;;;5072023;28;20098;-80
2023/08/14 06:31:40;;;;;;;12.35;8.88;;;16.30;93.70;;;;;;5055271;28;20442;-80
2023/08/14 06:34:05;;;;;;;16.88;10.13;;;16.30;93.50;;;;;;5022335;28;20029;-81
2023/08/14 06:36:31;;;;;;;10.18;9.10;;;16.40;93.30;;;;;;5055035;28;20097;-79
2023/08/14 06:38:57;;;;;;;15.50;9.05;;;16.50;93.10;;;;;;5055143;28;20090;-79
2023/08/14 06:41:22;;;;;;;10.80;8.52;;;16.50;93.10;;;;;;5072149;28;20051;-79
2023/08/14 06:43:48;;;;;;;10.50;8.57;;;16.60;93.00;;;;;;5055219;28;20531;-79
2023/08/14 06:46:14;;;;;;;10.88;8.52;;;16.70;92.90;;;;;;5083931;28;20067;-80
2023/08/14 06:48:39;;;;;;;11.45;9.70;;;16.70;92.80;;;;;;5074312;28;20040;-79
2023/08/14 06:51:05;;;;;;;12.50;8.10;;;16.80;92.70;;;;;;5091334;28;20036;-78
2023/08/14 06:53:31;;;;;;;13.88;9.43;;;16.90;92.40;;;;;;5091597;28;20028;-80
2023/08/14 06:55:57;;;;;;;13.52;8.32;;;16.90;92.30;;;;;;5057807;28;20044;-80
2023/08/14 06:58:23;;;;;;;12.43;8.48;;;17.00;92.20;;;;;;5091012;28;20118;-78
2023/08/14 07:00:49;;;;;;;11.30;8.40;;;17.00;91.90;;;;;;5041021;28;20043;-80
2023/08/14 07:03:14;;;;;;;11.65;8.05;;;17.00;91.60;;;;;;5074877;28;20143;-79
2023/08/14 07:05:40;;;;;;;12.00;7.35;;;17.10;91.60;;;;;;5075412;28;20048;-79
2023/08/14 07:08:06;;;;;;;10.38;7.32;;;17.20;91.60;;;;;;5057854;28;20484;-78
2023/08/14 07:10:31;;;;;;;9.63;7.82;;;17.30;91.50;;;;;;5058551;28;20064;-77
2023/08/14 07:12:57;;;;;;;15.48;7.95;;;17.30;90.90;;;;;;5054715;28;20075;-79
2023/08/14 07:15:23;;;;;;;12.43;7.50;;;17.40;91.00;;;;;;5054789;28;20041;-80
2023/08/14 07:17:48;;;;;;;11.93;8.60;;;17.50;90.40;;;;;;5071470;28;20036;-80
2023/08/14 07:20:14;;;;;;;10.20;8.05;;;17.50;90.10;;;;;;5038432;28;20127;-79
2023/08/14 07:22:40;;;;;;;9.82;7.03;;;17.50;90.10;;;;;;5054938;28;20051;-81
2023/08/14 07:25:06;;;;;;;11.77;7.47;;;17.50;89.80;;;;;;5071577;28;20040;-83
2023/08/14 07:27:32;;;;;;;10.68;6.88;;;17.60;89.80;;;;;;5039232;28;20136;-81
2023/08/14 07:29:58;;;;;;;10.30;6.82;;;17.70;89.90;;;;;;5055116;28;20083;-82
2023/08/14 07:32:23;;;;;;;11.43;7.72;;;17.80;89.70;;;;;;5038777;28;20086;-80
2023/08/14 07:34:49;;;;;;;11.20;8.38;;;17.90;89.80;;;;;;5055336;28;20033;-80
2023/08/14 07:37:15;;;;;;;10.00;6.53;;;17.90;90.00;;;;;;5055104;28;20051;-78
2023/08/14 07:39:41;;;;;;;8.40;6.65;;;18.00;89.60;;;;;;5071895;28;20076;-79
2023/08/14 07:42:06;;;;;;;9.02;7.05;;;18.00;89.00;;;;;;5055677;28;20072;-83
2023/08/14 07:44:32;;;;;;;9.70;6.70;;;18.00;88.40;;;;;;5021713;28;20044;-82
2023/08/14 07:46:58;;;;;;;11.27;7.88;;;18.00;88.90;;;;;;5054548;28;20044;-80
2023/08/14 07:49:23;;;;;;;10.13;6.60;;;18.10;88.50;;;;;;5038064;28;20041;-81
2023/08/14 07:51:49;;;;;;;10.48;6.63;;;18.20;88.10;;;;;;5038258;28;20435;-79
2023/08/14 07:54:15;;;;;;;7.25;5.82;;;18.30;88.00;;;;;;5072913;28;20439;-79
2023/08/14 07:56:40;;;;;;;8.75;5.50;;;18.50;87.70;;;;;;5038881;28;20033;-82
2023/08/14 07:59:06;;;;;;;9.73;5.80;;;18.50;86.90;;;;;;5075679;28;20123;-78
2023/08/14 08:01:32;;;;;;;6.18;4.90;;;18.60;86.90;;;;;;5059627;28;20064;-79
2023/08/14 08:03:59;;;;;;;6.20;4.45;;;18.60;86.20;;;;;;5059235;28;20120;-80
2023/08/14 08:06:25;;;;;;;7.10;4.50;;;18.80;86.40;;;;;;5042666;28;20048;-82
2023/08/14 08:08:51;;;;;;;7.82;3.78;;;18.80;84.60;;;;;;5041519;28;20045;-81
2023/08/14 08:11:16;;;;;;;6.93;3.88;;;18.90;84.10;;;;;;5057989;28;20186;-80
2023/08/14 08:13:42;;;;;;;7.00;3.58;;;19.00;84.60;;;;;;5074843;28;20148;-81
2023/08/14 08:16:08;;;;;;;7.10;3.60;;;19.10;84.20;;;;;;5057955;28;20134;-78
2023/08/14 08:18:35;;;;;;;5.22;3.83;;;19.20;83.90;;;;;;5058158;28;20040;-83
2023/08/14 08:21:01;;;;;;;8.23;4.28;;;19.20;82.00;;;;;;5091416;28;20040;-79
2023/08/14 08:23:27;;;;;;;6.07;3.35;;;19.30;83.60;;;;;;5074301;28;20550;-81
2023/08/14 08:25:53;;;;;;;5.35;3.30;;;19.40;82.70;;;;;;5073561;28;20040;-79
2023/08/14 08:28:20;;;;;;;5.78;3.63;;;19.40;82.40;;;;;;5056925;28;20041;-78
2023/08/14 08:30:46;;;;;;;5.32;2.80;;;19.50;82.10;;;;;;5040951;28;20047;-78
2023/08/14 08:33:12;;;;;;;5.05;3.10;;;19.40;81.20;;;;;;5041386;28;20033;-79
2023/08/14 08:35:37;;;;;;;8.05;3.05;;;19.40;80.50;;;;;;5057024;28;20514;-80
2023/08/14 08:38:03;;;;;;;5.47;2.80;;;19.50;81.00;;;;;;5057365;28;20048;-79
2023/08/14 08:40:31;;;;;;;6.82;2.90;;;19.50;80.50;;;;;;5057331;28;20040;-79
2023/08/14 08:42:59;;;;;;;12.43;5.75;;;19.50;80.70;;;;;;5074039;28;20044;-78
2023/08/14 08:45:31;;;;;;;7.20;3.33;;;19.50;80.80;;;;;;5074370;28;20505;-80
2023/08/14 08:48:00;;;;;;;6.55;2.85;;;19.50;79.40;;;;;;5090693;28;20075;-79
2023/08/14 08:50:28;;;;;;;6.05;3.45;;;19.50;79.40;;;;;;5074116;28;20037;-79
2023/08/14 08:52:54;;;;;;;4.03;2.80;;;19.50;79.50;;;;;;5057488;28;20101;-78
2023/08/14 08:55:20;;;;;;;5.55;2.92;;;19.60;80.10;;;;;;5073746;28;20123;-79
2023/08/14 08:57:48;;;;;;;4.63;2.92;;;19.60;78.90;;;;;;5057198;28;20078;-80
2023/08/14 09:00:15;;;;;;;7.32;2.80;;;19.60;80.00;;;;;;5090660;28;20041;-80
2023/08/14 09:02:41;;;;;;;7.60;2.88;;;19.70;80.10;;;;;;5040364;28;20036;-81
2023/08/14 09:05:06;;;;;;;6.43;2.45;;;19.70;79.50;;;;;;5057197;28;20047;-79
2023/08/14 09:07:33;;;;;;;6.85;2.67;;;19.80;79.60;;;;;;5056835;28;20044;-79
2023/08/14 09:10:00;;;;;;;6.03;2.30;;;19.80;78.70;;;;;;5049382;28;20048;-80
2023/08/14 09:12:26;;;;;;;3.58;2.13;;;20.00;79.10;;;;;;5046910;28;20043;-79
2023/08/14 09:15:06;;;;;;;3.90;2.10;;;20.10;77.80;;;;;;5087106;28;20040;-83
2023/08/14 09:17:32;;;;;;;4.55;2.17;;;20.40;77.40;;;;;;5069953;28;20040;-81
2023/08/14 09:19:57;;;;;;;4.00;2.08;;;20.50;77.70;;;;;;5068409;28;20039;-79
2023/08/14 09:22:27;;;;;;;4.18;1.80;;;20.70;75.90;;;;;;5086229;28;20048;-82
2023/08/14 09:24:53;;;;;;;3.20;1.60;;;20.90;75.70;;;;;;5086710;28;20396;-79
2023/08/14 09:27:20;;;;;;;5.30;1.98;;;21.10;74.00;;;;;;5085841;28;20058;-78
2023/08/14 09:29:46;;;;;;;3.25;1.40;;;21.20;71.40;;;;;;5084682;28;20063;-82
2023/08/14 09:32:12;;;;;;;4.60;1.55;;;21.20;71.30;;;;;;5069554;28;20288;-79
2023/08/14 09:34:38;;;;;;;4.70;1.70;;;21.20;70.80;;;;;;5069884;28;20036;-81
2023/08/14 09:37:04;;;;;;;3.03;1.75;;;21.20;71.00;;;;;;5085769;28;20055;-83
2023/08/14 09:39:30;;;;;;;4.03;1.70;;;21.30;71.50;;;;;;5067860;28;20051;-81
2023/08/14 09:41:56;;;;;;;6.05;1.50;;;21.30;70.80;;;;;;5052782;28;20040;-79
2023/08/14 09:44:24;;;;;;;3.33;1.90;;;21.30;71.70;;;;;;5086317;28;20052;-80
2023/08/14 09:46:54;;;;;;;3.90;1.55;;;21.30;71.00;;;;;;5085777;28;20559;-78
2023/08/14 09:49:20;;;;;;;4.82;1.67;;;21.50;72.20;;;;;;5051864;28;20113;-79
2023/08/14 09:51:58;;;;;;;4.68;1.40;;;21.50;71.10;;;;;;5068873;28;20058;-84
2023/08/14 09:54:32;;;;;;;4.75;1.50;;;21.50;68.70;;;;;;5075120;28;20067;-81
2023/08/14 09:56:59;;;;;;;4.57;1.45;;;21.50;70.00;;;;;;5059573;28;20047;-83
2023/08/14 09:59:26;;;;;;;3.67;1.40;;;21.70;70.20;;;;;;5059938;28;20510;-82
2023/08/14 10:01:54;;;;;;;2.75;1.70;;;21.70;70.00;;;;;;5076956;28;20036;-80
2023/08/14 10:04:22;;;;;;;5.10;1.73;;;21.90;70.30;;;;;;5059672;28;20043;-82
2023/08/14 10:06:49;;;;;;;3.53;1.90;;;22.00;70.80;;;;;;5075999;28;20044;-82
2023/08/14 10:09:17;;;;;;;5.80;2.25;;;22.20;71.00;;;;;;5076490;28;20044;-84
2023/08/14 10:11:44;;;;;;;5.88;1.70;;;22.30;70.80;;;;;;5093148;28;20040;-83
2023/08/14 10:14:19;;;;;;;6.15;2.10;;;22.40;70.90;;;;;;5092966;28;20055;-82
2023/08/14 10:16:47;;;;;;;4.30;2.10;;;22.40;70.20;;;;;;5092634;28;20572;-82
2023/08/14 10:19:13;;;;;;;4.57;1.85;;;22.40;70.10;;;;;;5060233;28;20522;-84
2023/08/14 10:21:40;;;;;;;4.03;2.10;;;22.40;68.60;;;;;;5091944;28;20074;-84
2023/08/14 10:24:07;;;;;;;4.22;1.77;;;22.40;69.20;;;;;;5059306;28;20515;-85
2023/08/14 10:26:34;;;;;;;3.25;1.40;;;22.40;68.00;;;;;;5059385;28;20040;-81
2023/08/14 10:29:00;;;;;;;3.10;1.45;;;22.30;68.00;;;;;;5092339;28;20044;-82
2023/08/14 10:31:30;;;;;;;5.15;1.40;;;22.40;69.60;;;;;;5075501;28;20043;-83
2023/08/14 10:33:57;;;;;;;4.22;1.70;;;22.40;68.90;;;;;;5075558;28;20040;-84
2023/08/14 10:36:27;;;;;;;4.93;1.88;;;22.40;69.20;;;;;;5074684;28;20059;-84
2023/08/14 10:38:53;;;;;;;3.63;1.80;;;22.40;67.80;;;;;;5074935;28;20101;-82
2023/08/14 10:41:18;;;;;;;3.40;1.58;;;22.60;69.40;;;;;;5075560;28;20040;-81
2023/08/14 10:43:51;;;;;;;3.63;1.50;;;22.90;68.90;;;;;;5075727;28;20034;-84
2023/08/14 10:46:17;;;;;;;3.88;1.42;;;23.10;67.90;;;;;;5092582;28;20368;-85
2023/08/14 10:48:47;;;;;;;4.97;2.20;;;23.10;66.70;;;;;;5075005;28;20059;-81
2023/08/14 10:51:15;;;;;;;6.63;1.88;;;23.30;66.20;;;;;;5092240;28;20036;-83
2023/08/14 10:53:41;;;;;;;5.10;2.13;;;23.60;66.60;;;;;;5075806;28;20484;-79
2023/08/14 10:56:07;;;;;;;3.42;1.80;;;23.60;63.70;;;;;;5071650;28;20044;-81
2023/08/14 10:58:36;;;;;;;4.32;1.90;;;23.80;65.40;;;;;;5067521;28;20058;-80
2023/08/14 11:01:03;;;;;;;3.60;1.40;;;23.80;62.30;;;;;;5066390;28;20907;-79
2023/08/14 11:03:31;;;;;;;5.00;1.60;;;23.90;63.40;;;;;;5084251;28;20044;-79
2023/08/14 11:05:57;;;;;;;4.10;1.60;;;23.80;62.80;;;;;;5067296;28;20044;-78
2023/08/14 11:08:23;;;;;;;6.15;1.92;;;24.00;62.90;;;;;;5084599;28;20471;-79
2023/08/14 11:10:49;;;;;;;4.18;1.50;;;24.00;62.40;;;;;;5050358;28;20114;-79
2023/08/14 11:13:16;;;;;;;4.03;1.50;;;24.10;62.20;;;;;;5085160;28;20036;-80
2023/08/14 11:15:43;;;;;;;2.85;1.58;;;24.00;61.70;;;;;;5067515;28;20109;-79
2023/08/14 11:18:09;;;;;;;3.83;1.70;;;24.20;62.10;;;;;;5084907;28;20075;-79
2023/08/14 11:20:42;;;;;;;5.50;2.38;;;24.30;60.90;;;;;;5078736;28;20135;-79
2023/08/14 11:23:08;;;;;;;3.78;1.40;;;24.40;60.80;;;;;;5067465;28;20078;-79
2023/08/14 11:25:34;;;;;;;2.85;1.70;;;24.60;60.90;;;;;;5084260;28;20079;-79
2023/08/14 11:28:00;;;;;;;6.45;2.60;;;24.70;60.00;;;;;;5067069;28;20047;-81
2023/08/14 11:30:30;;;;;;;5.43;1.80;;;24.80;60.90;;;;;;5066843;28;20036;-80
2023/08/14 11:32:57;;;;;;;4.40;1.65;;;25.00;60.70;;;;;;5067583;28;20040;-81
2023/08/14 11:35:25;;;;;;;3.47;1.45;;;25.10;59.50;;;;;;5088619;28;20044;-78
2023/08/14 11:37:50;;;;;;;4.28;1.42;;;25.10;57.90;;;;;;5071796;28;20048;-82
2023/08/14 11:40:16;;;;;;;3.90;1.45;;;25.00;57.90;;;;;;5088662;28;20047;-80
2023/08/14 11:42:43;;;;;;;4.25;1.63;;;25.00;58.40;;;;;;5070547;28;20131;-81
2023/08/14 11:45:09;;;;;;;3.90;1.80;;;25.00;57.30;;;;;;5088249;28;20054;-81
2023/08/14 11:47:37;;;;;;;2.05;1.33;;;25.20;57.60;;;;;;5088086;28;20401;-80
2023/08/14 11:50:04;;;;;;;2.95;1.48;;;25.50;58.50;;;;;;5087751;28;20052;-80
2023/08/14 11:52:30;;;;;;;4.90;1.58;;;25.50;56.70;;;;;;5087188;28;20503;-81
2023/08/14 11:54:57;;;;;;;3.28;1.67;;;25.50;58.40;;;;;;5087713;28;20039;-80
2023/08/14 11:57:26;;;;;;;6.57;1.90;;;25.90;58.50;;;;;;5064264;28;20086;-78
2023/08/14 11:59:56;;;;;;;4.32;2.10;;;26.20;57.50;;;;;;5070938;28;20036;-80
2023/08/14 12:02:27;;;;;;;2.53;1.33;;;25.90;55.50;;;;;;5053445;28;20396;-81
2023/08/14 12:05:00;;;;;;;2.22;1.35;;;26.20;56.20;;;;;;5065957;28;20456;-80
2023/08/14 12:07:27;;;;;;;3.83;1.58;;;26.00;55.70;;;;;;5069906;28;20128;-81
2023/08/14 12:09:54;;;;;;;3.55;1.90;;;26.10;55.90;;;;;;5087071;28;20044;-81
2023/08/14 12:12:20;;;;;;;6.35;1.90;;;26.10;55.70;;;;;;5069584;28;20051;-80
2023/08/14 12:14:47;;;;;;;3.83;1.50;;;26.10;57.10;;;;;;5070617;28;20040;-79
2023/08/14 12:17:15;;;;;;;6.82;1.63;;;26.10;57.50;;;;;;5070316;28;20050;-81
2023/08/14 12:19:42;;;;;;;4.10;1.95;;;26.10;55.00;;;;;;5069918;28;20048;-80
2023/08/14 12:22:08;;;;;;;6.47;2.30;;;26.30;57.40;;;;;;5052677;28;20161;-80
2023/08/14 12:24:42;;;;;;;5.90;1.60;;;26.40;56.70;;;;;;5087255;28;20048;-81
2023/08/14 12:27:28;;;;;;;3.47;1.60;;;26.40;55.00;;;;;;5069618;28;20238;-81
2023/08/14 12:29:55;;;;;;;2.78;1.50;;;26.20;54.30;;;;;;5087681;28;20033;-81
2023/08/14 12:32:23;;;;;;;6.85;1.77;;;26.10;54.50;;;;;;5069563;28;20044;-82
2023/08/14 12:34:49;;;;;;;3.30;1.42;;;26.10;55.10;;;;;;5053787;28;20092;-82
2023/08/14 12:37:15;;;;;;;4.15;1.75;;;26.20;53.80;;;;;;5087035;28;20452;-81
2023/08/14 12:39:44;;;;;;;3.03;1.30;;;26.30;55.20;;;;;;5070527;28;20500;-81
2023/08/14 12:42:11;;;;;;;3.30;1.52;;;26.10;55.50;;;;;;5085785;28;20058;-80